Time;durP1;ratioP1;P1;durP2;ratioP2;P2;SDS_P1;SDS_P2;PMS_P1;PMS_P2;Temp;Humidity;BMP_temperature;BMP_pressure;BME280_temperature;BME280_humidity;BME280_pressure;Samples;Min_cycle;Max_cycle;Signal;HPM_P1;HPM_P2
2024/01/20 00:00:22;;;;;;;22.67;11.67;;;-1.00;84.20;;;1.09;58.23;98652.41;5075874;28;20051;-49
2024/01/20 00:02:50;;;;;;;20.63;11.37;;;-1.00;83.10;;;1.07;58.46;98660.34;5076434;28;20044;-48
2024/01/20 00:05:17;;;;;;;19.93;10.40;;;-1.10;82.90;;;1.05;58.29;98658.69;5076979;28;20515;-50
2024/01/20 00:07:45;;;;;;;21.10;12.03;;;-1.10;83.60;;;1.07;58.60;98662.13;5076927;28;20385;-47
2024/01/20 00:10:14;;;;;;;35.30;18.43;;;-1.10;84.30;;;1.05;58.86;98661.31;5076857;28;20045;-47
2024/01/20 00:12:42;;;;;;;27.80;14.57;;;-1.00;84.20;;;1.03;58.26;98644.81;5076097;28;20044;-49
2024/01/20 00:15:12;;;;;;;47.80;19.83;;;-1.00;83.70;;;1.02;58.34;98643.13;5076637;28;20295;-50
2024/01/20 00:17:41;;;;;;;45.07;19.40;;;-0.90;83.20;;;1.01;58.24;98641.41;5074090;28;20294;-47
2024/01/20 00:20:09;;;;;;;88.43;30.40;;;-1.00;84.50;;;1.01;58.26;98649.28;5073300;28;20041;-47
2024/01/20 00:22:38;;;;;;;91.60;35.10;;;-1.00;83.70;;;1.00;58.60;98650.22;5071845;28;20047;-47
2024/01/20 00:25:08;;;;;;;64.90;25.63;;;-1.00;83.40;;;0.97;58.21;98646.84;5072637;28;20048;-49
2024/01/20 00:27:37;;;;;;;65.23;28.13;;;-1.00;83.60;;;0.94;58.27;98646.97;5071736;28;20472;-48
2024/01/20 00:30:05;;;;;;;161.27;56.70;;;-1.10;83.70;;;0.87;57.71;98639.50;5073476;28;20048;-46
2024/01/20 00:32:33;;;;;;;53.20;25.07;;;-1.10;82.10;;;0.82;57.96;98644.97;5073338;28;20047;-47
2024/01/20 00:35:04;;;;;;;33.53;16.40;;;-1.10;82.50;;;0.83;58.38;98640.56;5073045;28;20037;-51
2024/01/20 00:37:37;;;;;;;21.20;11.93;;;-1.20;82.90;;;0.78;58.17;98652.13;5073330;28;20063;-47
2024/01/20 00:40:06;;;;;;;18.87;10.63;;;-1.20;82.90;;;0.77;58.43;98657.44;5088855;28;20067;-50
2024/01/20 00:42:34;;;;;;;22.77;11.83;;;-1.20;82.40;;;0.77;57.88;98660.06;5073110;28;20404;-46
2024/01/20 00:45:06;;;;;;;18.33;10.67;;;-1.30;83.50;;;0.77;58.75;98665.31;5073057;28;20044;-47
2024/01/20 00:47:37;;;;;;;24.43;12.37;;;-1.30;83.70;;;0.75;58.51;98665.38;5065764;28;20040;-47
2024/01/20 00:50:07;;;;;;;22.90;12.10;;;-1.30;84.00;;;0.73;58.78;98669.84;5073211;28;20439;-47
2024/01/20 00:52:35;;;;;;;18.97;10.70;;;-1.30;83.60;;;0.73;57.81;98676.88;5072918;28;20040;-48
2024/01/20 00:55:04;;;;;;;20.20;11.57;;;-1.30;84.00;;;0.66;57.84;98673.72;5071817;28;20048;-48
2024/01/20 00:57:31;;;;;;;19.00;11.90;;;-1.40;83.50;;;0.66;58.19;98667.59;5073057;28;20511;-47
2024/01/20 00:59:59;;;;;;;19.37;12.90;;;-1.40;83.60;;;0.67;58.24;98664.06;5071839;28;20476;-47
2024/01/20 01:02:26;;;;;;;22.03;12.17;;;-1.40;83.80;;;0.70;58.18;98663.91;5072588;28;20048;-50
2024/01/20 01:04:54;;;;;;;22.53;11.60;;;-1.40;83.90;;;0.68;58.44;98661.38;5054390;28;20063;-48
2024/01/20 01:07:22;;;;;;;21.70;12.43;;;-1.40;84.00;;;0.69;58.57;98659.59;5072902;28;20416;-47
2024/01/20 01:09:53;;;;;;;16.47;10.67;;;-1.40;83.70;;;0.69;58.03;98660.44;5072792;28;20202;-48
2024/01/20 01:12:20;;;;;;;18.67;10.67;;;-1.40;84.30;;;0.69;58.69;98656.97;5071398;28;20424;-48
2024/01/20 01:14:48;;;;;;;19.23;11.30;;;-1.40;84.20;;;0.65;58.30;98655.44;5072722;28;20036;-47
2024/01/20 01:17:16;;;;;;;19.13;9.87;;;-1.40;83.50;;;0.65;57.83;98668.53;5072555;28;20059;-46
2024/01/20 01:19:45;;;;;;;19.47;9.97;;;-1.50;84.10;;;0.59;57.79;98675.75;5072834;28;20032;-46
2024/01/20 01:22:13;;;;;;;18.53;9.93;;;-1.50;83.80;;;0.55;58.14;98681.25;5069679;28;20040;-47
2024/01/20 01:24:41;;;;;;;19.23;10.63;;;-1.50;83.70;;;0.54;58.05;98687.38;5071174;28;20033;-47
2024/01/20 01:27:08;;;;;;;17.03;10.07;;;-1.50;83.40;;;0.53;58.18;98686.53;5072552;28;20511;-47
2024/01/20 01:29:36;;;;;;;19.40;9.83;;;-1.50;82.80;;;0.51;58.28;98696.25;5072285;28;20044;-49
2024/01/20 01:32:04;;;;;;;17.63;10.50;;;-1.50;82.80;;;0.52;57.92;98689.22;5072191;28;20036;-47
2024/01/20 01:34:34;;;;;;;16.70;8.77;;;-1.50;82.80;;;0.52;58.70;98694.47;5071931;28;20040;-51
2024/01/20 01:37:03;;;;;;;20.73;10.87;;;-1.40;83.20;;;0.54;58.65;98688.25;5072466;28;20040;-48
2024/01/20 01:39:30;;;;;;;19.87;11.30;;;-1.40;82.90;;;0.54;58.55;98684.75;5072060;28;20044;-47
2024/01/20 01:41:58;;;;;;;15.73;10.23;;;-1.40;83.40;;;0.55;58.64;98692.56;5071913;28;20471;-46
2024/01/20 01:44:26;;;;;;;18.57;9.90;;;-1.30;82.80;;;0.55;58.07;98695.19;5071337;28;20052;-46
2024/01/20 01:46:54;;;;;;;17.27;9.87;;;-1.40;82.10;;;0.53;57.78;98683.09;5071876;28;20411;-48
2024/01/20 01:49:22;;;;;;;17.50;10.23;;;-1.40;81.70;;;0.52;57.78;98692.69;5072122;28;20423;-47
2024/01/20 01:51:51;;;;;;;18.80;10.17;;;-1.40;82.20;;;0.49;58.03;98687.63;5062008;28;20052;-48
2024/01/20 01:54:22;;;;;;;18.67;8.90;;;-1.40;82.70;;;0.45;58.52;98691.31;5069982;28;20408;-48
2024/01/20 01:56:52;;;;;;;17.53;10.63;;;-1.40;82.00;;;0.44;58.31;98697.44;5071626;28;20488;-48
2024/01/20 01:59:21;;;;;;;18.37;10.30;;;-1.50;82.60;;;0.47;57.63;98693.88;5061842;28;20207;-48
2024/01/20 02:01:48;;;;;;;21.93;11.73;;;-1.40;82.90;;;0.45;58.09;98685.22;5071586;28;20036;-47
2024/01/20 02:04:16;;;;;;;17.90;10.47;;;-1.40;82.80;;;0.46;58.12;98682.50;5071649;28;20055;-49
2024/01/20 02:06:44;;;;;;;18.63;9.43;;;-1.30;82.10;;;0.44;58.26;98680.91;5071721;28;20052;-48
2024/01/20 02:09:13;;;;;;;20.50;11.40;;;-1.40;82.40;;;0.44;57.98;98691.38;5071392;28;20416;-48
2024/01/20 02:11:41;;;;;;;19.63;10.00;;;-1.40;82.60;;;0.44;58.19;98684.34;5070277;28;20496;-46
2024/01/20 02:14:10;;;;;;;20.63;11.00;;;-1.50;82.50;;;0.41;58.55;98671.41;5071408;28;20547;-48
2024/01/20 02:16:37;;;;;;;19.13;11.57;;;-1.50;83.10;;;0.44;58.39;98673.03;5071416;28;20275;-50
2024/01/20 02:19:05;;;;;;;21.67;11.33;;;-1.50;83.50;;;0.47;58.48;98676.34;5070090;28;20044;-48
2024/01/20 02:21:36;;;;;;;23.50;12.47;;;-1.50;84.10;;;0.45;58.06;98683.44;5070967;28;20411;-49
2024/01/20 02:24:07;;;;;;;21.33;10.73;;;-1.50;83.50;;;0.47;58.42;98686.84;5071344;28;20484;-48
2024/01/20 02:26:35;;;;;;;24.30;11.27;;;-1.60;84.50;;;0.48;58.40;98687.69;5069958;28;20044;-47
2024/01/20 02:29:02;;;;;;;20.13;11.57;;;-1.60;84.30;;;0.47;58.17;98686.84;5071571;28;20044;-47
2024/01/20 02:31:30;;;;;;;22.07;11.53;;;-1.60;84.70;;;0.48;58.63;98696.38;5071377;28;20048;-48
2024/01/20 02:33:58;;;;;;;21.33;11.90;;;-1.60;85.30;;;0.48;58.69;98704.25;5071142;28;20051;-49
2024/01/20 02:36:25;;;;;;;19.80;11.00;;;-1.60;85.10;;;0.45;57.92;98712.28;5071280;28;20515;-48
2024/01/20 02:38:53;;;;;;;21.37;11.00;;;-1.60;83.50;;;0.39;58.20;98712.56;5071194;28;20041;-48
2024/01/20 02:41:21;;;;;;;25.90;12.07;;;-1.70;84.30;;;0.37;57.59;98717.88;5070645;28;20044;-47
2024/01/20 02:43:48;;;;;;;21.90;11.43;;;-1.80;83.90;;;0.34;57.81;98712.75;5071061;28;20044;-48
2024/01/20 02:46:16;;;;;;;20.67;12.97;;;-1.80;83.80;;;0.28;57.74;98713.03;5071346;28;20036;-48
2024/01/20 02:48:44;;;;;;;21.67;11.00;;;-1.70;83.60;;;0.27;58.00;98711.38;5071543;28;20040;-47
2024/01/20 02:51:12;;;;;;;20.67;12.30;;;-1.70;83.30;;;0.26;58.59;98716.66;5071480;28;20048;-46
2024/01/20 02:53:39;;;;;;;24.17;11.33;;;-1.70;83.00;;;0.25;58.33;98718.41;5069837;28;20048;-46
2024/01/20 02:56:07;;;;;;;22.63;11.80;;;-1.80;82.50;;;0.23;57.97;98728.09;5071509;28;20044;-46
2024/01/20 02:58:35;;;;;;;20.03;10.90;;;-1.90;82.80;;;0.21;58.05;98729.09;5070596;28;20056;-47
2024/01/20 03:01:05;;;;;;;21.97;11.23;;;-1.80;83.50;;;0.20;58.34;98725.66;5070626;28;20040;-46
2024/01/20 03:03:32;;;;;;;24.77;11.13;;;-1.80;83.40;;;0.20;58.47;98723.03;5070457;28;20056;-48
2024/01/20 03:06:00;;;;;;;18.67;10.87;;;-1.70;83.40;;;0.18;58.02;98723.09;5070560;28;20041;-46
2024/01/20 03:08:28;;;;;;;20.73;10.57;;;-1.80;83.10;;;0.21;58.29;98723.88;5070760;28;20059;-48
2024/01/20 03:10:55;;;;;;;17.33;9.90;;;-1.80;83.70;;;0.18;58.48;98723.09;5070879;28;20044;-47
2024/01/20 03:13:23;;;;;;;18.27;10.77;;;-1.70;83.60;;;0.16;57.89;98722.31;5070380;28;20071;-46
2024/01/20 03:15:51;;;;;;;18.93;9.93;;;-1.70;82.50;;;0.09;58.52;98720.88;5070605;28;20041;-47
2024/01/20 03:18:18;;;;;;;17.17;10.03;;;-1.70;82.10;;;0.09;58.44;98727.91;5070421;28;20051;-48
2024/01/20 03:20:46;;;;;;;20.27;10.80;;;-1.70;82.80;;;0.07;58.09;98727.13;5070571;28;20431;-46
2024/01/20 03:23:14;;;;;;;20.33;10.23;;;-1.70;82.30;;;0.07;58.29;98727.13;5070420;28;20408;-46
2024/01/20 03:25:41;;;;;;;18.17;9.90;;;-1.70;83.10;;;0.05;58.59;98721.94;5070230;28;20041;-47
2024/01/20 03:28:09;;;;;;;19.83;11.17;;;-1.70;82.30;;;0.09;58.52;98725.28;5070569;28;20040;-46
2024/01/20 03:30:36;;;;;;;18.33;9.10;;;-1.70;82.80;;;0.10;58.50;98727.00;5070556;28;20053;-48
2024/01/20 03:33:04;;;;;;;17.17;9.43;;;-1.80;83.20;;;0.12;57.83;98720.75;5068648;28;20079;-48
2024/01/20 03:35:33;;;;;;;18.37;9.47;;;-1.70;83.30;;;0.15;57.79;98731.06;5068764;28;20431;-46
2024/01/20 03:38:01;;;;;;;21.40;10.83;;;-1.70;83.20;;;0.11;58.03;98721.66;5070599;28;20045;-46
2024/01/20 03:40:28;;;;;;;21.00;10.03;;;-1.70;82.80;;;0.11;57.57;98728.69;5070392;28;20040;-47
2024/01/20 03:42:57;;;;;;;19.80;9.90;;;-1.70;82.30;;;0.09;58.43;98738.38;5069928;28;20036;-48
2024/01/20 03:45:28;;;;;;;16.70;9.83;;;-1.70;82.50;;;0.11;58.70;98736.53;5070323;28;20500;-48
2024/01/20 03:47:56;;;;;;;22.17;10.37;;;-1.70;82.50;;;0.12;58.19;98738.25;5070525;28;20047;-47
2024/01/20 03:50:24;;;;;;;18.23;10.20;;;-1.80;83.10;;;0.10;58.52;98735.69;5070309;28;20075;-49
2024/01/20 03:52:52;;;;;;;19.70;10.47;;;-1.70;82.70;;;0.09;58.39;98733.97;5071666;28;20488;-46
2024/01/20 03:55:19;;;;;;;18.43;10.10;;;-1.80;82.30;;;0.10;58.23;98740.94;5074016;28;20048;-47
2024/01/20 03:57:47;;;;;;;19.57;10.73;;;-1.80;83.30;;;0.08;58.52;98747.13;5065959;28;20044;-46
2024/01/20 04:00:15;;;;;;;20.90;11.10;;;-1.90;82.60;;;0.04;58.38;98740.34;5072772;28;20048;-46
2024/01/20 04:02:43;;;;;;;21.93;11.67;;;-1.90;83.20;;;0.03;58.38;98739.50;5073745;28;20044;-48
2024/01/20 04:05:10;;;;;;;20.43;11.93;;;-1.90;83.60;;;0.01;58.41;98737.88;5074432;28;20051;-48
2024/01/20 04:07:38;;;;;;;19.27;10.70;;;-1.90;83.30;;;-0.01;58.08;98733.53;5074067;28;20041;-46
2024/01/20 04:10:07;;;;;;;20.37;10.07;;;-1.90;83.30;;;-0.07;58.53;98738.22;5073232;28;20051;-49
2024/01/20 04:12:37;;;;;;;24.17;11.17;;;-1.90;82.30;;;-0.12;57.61;98733.16;5073638;28;20052;-48
2024/01/20 04:15:06;;;;;;;25.53;11.83;;;-1.90;82.50;;;-0.14;58.07;98734.16;5072845;28;20115;-47
2024/01/20 04:17:34;;;;;;;19.17;10.80;;;-1.90;82.80;;;-0.16;57.92;98742.06;5072339;28;20064;-47
2024/01/20 04:20:04;;;;;;;20.23;11.33;;;-1.90;82.60;;;-0.15;58.42;98743.78;5073882;28;20040;-47
2024/01/20 04:22:31;;;;;;;21.67;11.10;;;-1.90;82.60;;;-0.13;57.80;98741.94;5070377;28;20044;-46
2024/01/20 04:24:59;;;;;;;17.53;10.40;;;-1.90;82.30;;;-0.15;58.02;98753.41;5073314;28;20044;-47
2024/01/20 04:27:27;;;;;;;16.57;10.37;;;-1.90;82.50;;;-0.14;58.43;98755.09;5073384;28;20049;-46
2024/01/20 04:29:55;;;;;;;22.13;11.63;;;-2.00;82.40;;;-0.14;57.54;98755.94;5073578;28;20479;-45
2024/01/20 04:32:23;;;;;;;23.37;12.30;;;-2.00;82.50;;;-0.17;58.00;98750.84;5072087;28;20044;-46
2024/01/20 04:34:50;;;;;;;23.30;12.10;;;-2.10;82.70;;;-0.13;58.47;98757.66;5064894;28;20416;-47
2024/01/20 04:37:18;;;;;;;18.77;10.50;;;-2.10;84.20;;;-0.13;57.94;98759.44;5073627;28;20055;-47
2024/01/20 04:39:45;;;;;;;24.50;11.97;;;-2.10;83.20;;;-0.12;58.10;98761.97;5072855;28;20118;-46
2024/01/20 04:42:13;;;;;;;21.87;12.10;;;-2.10;83.50;;;-0.08;58.18;98757.44;5073021;28;20047;-46
2024/01/20 04:44:41;;;;;;;28.27;12.43;;;-2.10;84.50;;;-0.07;57.58;98756.53;5071819;28;20041;-46
2024/01/20 04:47:08;;;;;;;20.93;11.33;;;-2.10;84.00;;;-0.07;58.06;98756.53;5071609;28;20510;-47
2024/01/20 04:49:36;;;;;;;21.30;11.67;;;-2.10;84.20;;;-0.08;57.34;98762.69;5071799;28;20048;-46
2024/01/20 04:52:04;;;;;;;24.53;11.70;;;-2.10;83.00;;;-0.11;57.26;98763.66;5072867;28;20033;-47
2024/01/20 04:54:32;;;;;;;22.40;11.70;;;-2.20;84.10;;;-0.16;57.61;98768.25;5072619;28;20057;-47
2024/01/20 04:57:00;;;;;;;21.87;11.17;;;-2.30;84.10;;;-0.23;57.73;98765.06;5073027;28;20040;-47
2024/01/20 04:59:27;;;;;;;18.33;10.67;;;-2.30;83.50;;;-0.29;57.62;98775.81;5071511;28;20049;-46
2024/01/20 05:01:55;;;;;;;20.90;10.87;;;-2.30;83.20;;;-0.30;58.13;98768.00;5072459;28;20056;-46
2024/01/20 05:04:22;;;;;;;21.50;10.83;;;-2.40;82.30;;;-0.34;57.59;98772.50;5070277;28;20056;-47
2024/01/20 05:06:51;;;;;;;21.73;13.07;;;-2.50;83.30;;;-0.35;57.02;98767.34;5072961;28;20487;-47
2024/01/20 05:09:18;;;;;;;23.97;11.87;;;-2.50;84.20;;;-0.36;57.27;98768.28;5072436;28;20051;-48
2024/01/20 05:11:46;;;;;;;26.93;11.70;;;-2.60;84.20;;;-0.39;57.89;98766.63;5072420;28;20488;-45
2024/01/20 05:14:14;;;;;;;24.47;12.63;;;-2.50;84.00;;;-0.42;57.81;98762.38;5072667;28;20484;-47
2024/01/20 05:16:41;;;;;;;20.40;11.60;;;-2.50;83.80;;;-0.43;57.49;98773.78;5071455;28;20496;-48
2024/01/20 05:19:09;;;;;;;24.47;12.77;;;-2.50;83.80;;;-0.47;57.81;98774.78;5072529;28;20037;-47
2024/01/20 05:21:38;;;;;;;23.97;12.00;;;-2.60;84.00;;;-0.50;57.11;98767.09;5071020;28;20436;-47
2024/01/20 05:24:06;;;;;;;22.57;11.77;;;-2.60;84.00;;;-0.53;57.12;98774.22;5071744;28;20052;-47
2024/01/20 05:26:33;;;;;;;22.03;12.57;;;-2.80;84.20;;;-0.60;57.53;98777.09;5072279;28;20051;-46
2024/01/20 05:29:01;;;;;;;19.03;11.17;;;-2.80;85.10;;;-0.65;57.74;98775.56;5072351;28;20107;-46
2024/01/20 05:31:31;;;;;;;23.40;12.70;;;-2.90;85.10;;;-0.68;57.43;98778.31;5070595;28;20056;-46
2024/01/20 05:34:00;;;;;;;28.03;11.97;;;-2.80;85.10;;;-0.69;57.49;98779.22;5064477;28;20415;-47
2024/01/20 05:36:28;;;;;;;25.07;12.23;;;-2.80;84.80;;;-0.71;57.63;98779.28;5072338;28;20480;-47
2024/01/20 05:38:55;;;;;;;22.70;12.40;;;-2.70;84.70;;;-0.72;57.66;98790.66;5072684;28;20047;-46
2024/01/20 05:41:23;;;;;;;21.23;12.67;;;-2.70;84.20;;;-0.73;57.63;98788.97;5072555;28;20048;-47
2024/01/20 05:43:51;;;;;;;25.90;12.63;;;-2.70;84.60;;;-0.73;57.48;98795.97;5071301;28;20620;-46
2024/01/20 05:46:20;;;;;;;27.87;12.93;;;-2.80;83.90;;;-0.72;57.72;98802.88;5072228;28;20044;-47
2024/01/20 05:48:48;;;;;;;24.20;12.93;;;-2.80;84.60;;;-0.75;57.33;98801.25;5071801;28;20047;-47
2024/01/20 05:51:16;;;;;;;21.57;11.40;;;-2.80;84.10;;;-0.74;57.31;98797.72;5072069;28;20075;-48
2024/01/20 05:53:45;;;;;;;23.70;13.83;;;-2.80;84.70;;;-0.74;57.96;98808.16;5071114;28;20051;-46
2024/01/20 05:56:12;;;;;;;25.97;12.80;;;-2.80;84.60;;;-0.75;57.75;98801.25;5071790;28;20412;-45
2024/01/20 05:58:41;;;;;;;28.20;13.63;;;-2.90;85.10;;;-0.80;57.54;98797.97;5071319;28;20401;-47
2024/01/20 06:01:09;;;;;;;23.37;11.23;;;-2.90;84.90;;;-0.80;57.70;98804.03;5071506;28;20033;-46
2024/01/20 06:03:37;;;;;;;22.27;12.17;;;-2.90;84.70;;;-0.80;57.83;98803.19;5070929;28;20049;-46
2024/01/20 06:06:05;;;;;;;24.83;12.57;;;-2.80;84.80;;;-0.84;58.05;98799.84;5071287;28;20492;-47
2024/01/20 06:08:35;;;;;;;22.30;12.67;;;-2.90;84.30;;;-0.82;57.94;98810.25;5071582;28;20052;-46
2024/01/20 06:11:03;;;;;;;23.10;11.17;;;-2.90;84.70;;;-0.84;57.52;98810.31;5071559;28;20044;-49
2024/01/20 06:13:31;;;;;;;22.83;11.77;;;-2.90;84.40;;;-0.87;57.50;98810.44;5071076;28;20393;-46
2024/01/20 06:15:58;;;;;;;24.17;13.33;;;-2.90;84.80;;;-0.90;58.05;98810.56;5070088;28;20067;-46
2024/01/20 06:18:29;;;;;;;22.03;12.20;;;-2.90;84.60;;;-0.91;58.06;98813.22;5071390;28;20048;-46
2024/01/20 06:20:57;;;;;;;29.83;12.93;;;-2.90;84.40;;;-0.91;58.05;98826.28;5071128;28;20412;-48
2024/01/20 06:23:25;;;;;;;23.47;12.77;;;-2.90;84.80;;;-0.94;58.03;98836.91;5071028;28;20055;-47
2024/01/20 06:25:53;;;;;;;24.73;13.17;;;-3.00;84.50;;;-0.96;57.65;98843.94;5070721;28;20067;-47
2024/01/20 06:28:23;;;;;;;24.40;12.37;;;-3.00;84.40;;;-0.99;57.89;98844.91;5069790;28;20499;-48
2024/01/20 06:30:50;;;;;;;27.10;13.63;;;-3.10;84.60;;;-1.03;57.37;98844.19;5071174;28;20055;-47
2024/01/20 06:33:18;;;;;;;40.97;18.87;;;-3.20;85.30;;;-1.06;57.57;98836.47;5069541;28;20056;-48
2024/01/20 06:35:46;;;;;;;111.10;52.10;;;-3.30;85.90;;;-1.09;58.14;98843.56;5070901;28;20055;-47
2024/01/20 06:38:14;;;;;;;44.87;21.87;;;-3.30;85.70;;;-1.09;58.23;98847.03;5070951;28;20040;-47
2024/01/20 06:40:41;;;;;;;34.27;18.60;;;-3.20;86.10;;;-1.08;58.20;98846.13;5071159;28;20045;-47
2024/01/20 06:43:09;;;;;;;28.90;14.87;;;-3.10;85.80;;;-1.08;58.17;98845.28;5070871;28;20037;-49
2024/01/20 06:45:37;;;;;;;24.07;14.73;;;-3.10;85.60;;;-1.07;57.60;98847.81;5071008;28;20048;-48
2024/01/20 06:48:04;;;;;;;29.17;15.20;;;-3.10;85.50;;;-1.08;57.65;98846.13;5078405;28;20471;-47
2024/01/20 06:50:33;;;;;;;27.67;13.67;;;-3.20;85.00;;;-1.10;58.18;98844.50;5070922;28;20496;-48
2024/01/20 06:53:00;;;;;;;29.80;14.63;;;-3.20;85.40;;;-1.10;57.31;98863.63;5070461;28;20044;-48
2024/01/20 06:55:30;;;;;;;28.47;13.97;;;-3.30;85.80;;;-1.12;57.99;98860.22;5069387;28;20049;-48
2024/01/20 06:57:57;;;;;;;26.70;14.33;;;-3.20;85.80;;;-1.13;57.63;98868.97;5070513;28;20056;-47
2024/01/20 07:00:25;;;;;;;27.10;14.23;;;-3.20;85.10;;;-1.11;57.81;98874.13;5070432;28;20040;-46
2024/01/20 07:02:52;;;;;;;26.33;13.67;;;-3.20;85.60;;;-1.11;57.60;98876.75;5070465;28;20124;-50
2024/01/20 07:05:20;;;;;;;28.17;14.27;;;-3.20;85.30;;;-1.13;58.04;98874.19;5070522;28;20048;-48
2024/01/20 07:07:48;;;;;;;27.90;14.77;;;-3.20;85.20;;;-1.15;57.42;98877.78;5070783;28;20044;-49
2024/01/20 07:10:16;;;;;;;28.10;14.10;;;-3.30;85.20;;;-1.17;57.82;98872.59;5070797;28;20044;-48
2024/01/20 07:12:44;;;;;;;32.03;16.83;;;-3.30;85.10;;;-1.16;57.52;98878.66;5070269;28;20413;-49
2024/01/20 07:15:12;;;;;;;30.07;15.43;;;-3.30;84.80;;;-1.20;58.09;98876.19;5070677;28;20432;-51
2024/01/20 07:17:40;;;;;;;43.80;23.57;;;-3.40;85.40;;;-1.23;57.43;98878.91;5070740;28;20044;-52
2024/01/20 07:20:10;;;;;;;37.20;21.47;;;-3.40;85.30;;;-1.26;57.64;98873.81;5062470;28;20518;-51
2024/01/20 07:22:38;;;;;;;31.53;17.23;;;-3.40;86.20;;;-1.30;58.01;98882.69;5067368;28;20047;-48
2024/01/20 07:25:06;;;;;;;38.30;19.30;;;-3.30;86.30;;;-1.33;58.31;98885.38;5069177;28;20416;-47
2024/01/20 07:27:34;;;;;;;39.00;20.13;;;-3.30;87.20;;;-1.29;58.50;98884.38;5071803;28;20064;-48
2024/01/20 07:30:03;;;;;;;37.73;20.17;;;-3.30;86.30;;;-1.25;58.44;98887.72;5074656;28;20412;-48
2024/01/20 07:32:31;;;;;;;45.23;22.33;;;-3.20;86.20;;;-1.23;58.32;98886.75;5074191;28;20055;-51
2024/01/20 07:34:58;;;;;;;34.70;17.93;;;-3.20;85.60;;;-1.21;58.30;98894.53;5073265;28;20056;-47
2024/01/20 07:37:26;;;;;;;41.37;19.33;;;-3.20;85.90;;;-1.18;58.60;98891.81;5074679;28;20525;-47
2024/01/20 07:39:54;;;;;;;28.77;16.70;;;-3.10;85.50;;;-1.15;58.03;98894.31;5074544;28;20436;-46
2024/01/20 07:42:21;;;;;;;30.73;16.70;;;-3.10;85.70;;;-1.12;58.38;98909.03;5073770;28;20045;-51
2024/01/20 07:44:49;;;;;;;29.93;16.10;;;-3.10;85.70;;;-1.10;58.77;98908.06;5074242;28;20052;-48
2024/01/20 07:47:17;;;;;;;32.00;16.87;;;-3.10;85.40;;;-1.08;58.39;98914.06;5080801;28;20571;-48
2024/01/20 07:49:44;;;;;;;36.13;18.53;;;-3.10;85.90;;;-1.07;57.99;98913.16;5072893;28;20051;-48
2024/01/20 07:52:12;;;;;;;33.07;16.80;;;-3.10;85.30;;;-1.05;58.16;98908.75;5073702;28;20408;-46
2024/01/20 07:54:40;;;;;;;41.77;22.13;;;-3.00;86.00;;;-1.01;58.23;98912.06;5073805;28;20052;-49
2024/01/20 07:57:07;;;;;;;35.13;18.93;;;-3.00;85.90;;;-1.01;58.23;98909.47;5073958;28;20416;-48
2024/01/20 07:59:35;;;;;;;31.97;16.07;;;-3.00;85.30;;;-1.00;58.47;98912.03;5074513;28;20067;-47
2024/01/20 08:02:03;;;;;;;29.80;16.50;;;-3.00;86.50;;;-0.97;58.82;98924.13;5073507;28;20037;-47
2024/01/20 08:04:31;;;;;;;30.63;15.83;;;-2.90;86.00;;;-0.96;58.54;98919.75;5073541;28;20508;-46
2024/01/20 08:06:58;;;;;;;27.30;14.87;;;-2.80;84.60;;;-0.94;59.12;98920.56;5073973;28;20056;-48
2024/01/20 08:09:26;;;;;;;31.37;16.43;;;-2.80;85.30;;;-0.90;58.64;98916.91;5073911;28;20044;-49
2024/01/20 08:11:54;;;;;;;25.83;14.07;;;-2.80;84.40;;;-0.91;59.00;98913.44;5072233;28;20451;-47
2024/01/20 08:14:22;;;;;;;33.50;17.57;;;-2.80;84.80;;;-0.89;58.35;98924.69;5073455;28;20044;-48
2024/01/20 08:16:51;;;;;;;29.37;16.40;;;-2.90;85.30;;;-0.88;58.44;98922.94;5073801;28;20055;-46
2024/01/20 08:19:18;;;;;;;30.50;15.07;;;-2.80;85.20;;;-0.85;59.10;98928.06;5073712;28;20048;-48
2024/01/20 08:21:46;;;;;;;33.07;16.80;;;-2.80;85.00;;;-0.82;58.79;98927.91;5073437;28;20044;-47
2024/01/20 08:24:14;;;;;;;27.90;14.93;;;-2.80;84.90;;;-0.79;58.15;98933.03;5073464;28;20424;-47
2024/01/20 08:26:42;;;;;;;29.50;14.10;;;-2.80;85.50;;;-0.75;58.12;98932.00;5074084;28;20063;-47
2024/01/20 08:29:10;;;;;;;28.13;15.50;;;-2.80;85.60;;;-0.74;59.04;98941.53;5072458;28;20041;-47
2024/01/20 08:31:37;;;;;;;27.90;14.93;;;-2.70;86.20;;;-0.69;58.33;98938.78;5073504;28;20051;-48
2024/01/20 08:34:05;;;;;;;29.63;14.47;;;-2.70;85.10;;;-0.68;58.04;98943.06;5073454;28;20048;-46
2024/01/20 08:36:33;;;;;;;28.53;15.97;;;-2.70;85.60;;;-0.66;58.23;98949.09;5072396;28;20060;-46
2024/01/20 08:39:01;;;;;;;26.87;16.60;;;-2.70;85.60;;;-0.64;59.07;98957.75;5072257;28;20103;-45
2024/01/20 08:41:28;;;;;;;28.63;14.53;;;-2.60;85.50;;;-0.58;58.88;98967.13;5073222;28;20051;-49
2024/01/20 08:43:56;;;;;;;26.70;12.73;;;-2.50;85.20;;;-0.53;58.97;98971.25;5072590;28;20519;-48
2024/01/20 08:46:25;;;;;;;25.90;14.13;;;-2.40;84.80;;;-0.52;58.54;98966.91;5073397;28;20044;-48
2024/01/20 08:48:52;;;;;;;27.17;14.47;;;-2.50;85.20;;;-0.47;58.59;98970.19;5071955;28;20063;-48
2024/01/20 08:51:20;;;;;;;26.50;14.43;;;-2.50;84.80;;;-0.44;59.07;98973.53;5073113;28;20044;-46
2024/01/20 08:53:49;;;;;;;26.67;13.17;;;-2.40;86.10;;;-0.37;58.82;98978.50;5072749;28;20043;-46
2024/01/20 08:56:16;;;;;;;25.87;13.47;;;-2.30;84.80;;;-0.33;58.44;98986.22;5071930;28;20056;-47
2024/01/20 08:58:44;;;;;;;24.53;13.73;;;-2.20;84.50;;;-0.27;58.87;98987.69;5071388;28;20110;-46
2024/01/20 09:01:11;;;;;;;27.93;14.00;;;-2.20;84.70;;;-0.22;58.73;98989.22;5072843;28;20036;-47
2024/01/20 09:03:39;;;;;;;23.33;12.10;;;-2.20;84.70;;;-0.18;58.61;98979.50;5072504;28;20055;-50
2024/01/20 09:06:07;;;;;;;24.00;13.07;;;-2.20;84.30;;;-0.15;58.16;98978.53;5072455;28;20041;-50
2024/01/20 09:08:35;;;;;;;22.73;13.33;;;-2.20;84.80;;;-0.11;58.80;98982.72;5073087;28;20040;-47
2024/01/20 09:11:03;;;;;;;23.27;14.53;;;-2.10;84.50;;;-0.14;58.46;98982.84;5070992;28;20047;-47
2024/01/20 09:13:31;;;;;;;25.30;14.60;;;-2.10;84.00;;;-0.13;59.10;98995.88;5070203;28;20147;-45
2024/01/20 09:15:58;;;;;;;28.50;13.60;;;-2.00;84.20;;;-0.10;58.54;98992.28;5072602;28;20384;-47
2024/01/20 09:18:26;;;;;;;29.10;14.90;;;-2.00;82.90;;;-0.07;58.13;98992.16;5072707;28;20438;-46
2024/01/20 09:20:54;;;;;;;29.43;15.67;;;-2.00;83.00;;;-0.05;58.39;98992.94;5072649;28;20412;-45
2024/01/20 09:23:22;;;;;;;26.87;16.17;;;-2.00;83.00;;;-0.05;58.91;98993.78;5071912;28;20041;-47
2024/01/20 09:25:49;;;;;;;25.40;14.63;;;-2.00;83.10;;;-0.06;58.04;98991.22;5072454;28;20051;-46
2024/01/20 09:28:17;;;;;;;30.23;15.83;;;-2.10;82.50;;;-0.06;57.78;98999.09;5072385;28;20048;-46
2024/01/20 09:30:45;;;;;;;28.13;13.83;;;-2.10;82.90;;;-0.07;58.18;99002.63;5072235;28;20044;-46
2024/01/20 09:33:14;;;;;;;21.83;13.70;;;-2.10;82.70;;;-0.08;57.82;99001.78;5071568;28;20052;-50
2024/01/20 09:35:44;;;;;;;29.60;14.43;;;-2.00;82.70;;;-0.04;58.13;99000.75;5070486;28;20496;-47
2024/01/20 09:38:12;;;;;;;32.47;15.40;;;-2.00;82.90;;;-0.03;58.20;99010.28;5072135;28;20052;-47
2024/01/20 09:40:39;;;;;;;33.23;15.87;;;-2.00;82.00;;;-0.02;58.50;99014.63;5072186;28;20055;-48
2024/01/20 09:43:07;;;;;;;33.60;16.57;;;-1.90;82.50;;;-0.03;58.18;99017.31;5071237;28;20033;-47
2024/01/20 09:45:38;;;;;;;37.40;17.40;;;-1.90;82.20;;;-0.01;57.76;99025.94;5071532;28;20044;-47
2024/01/20 09:48:07;;;;;;;28.80;14.60;;;-1.90;81.80;;;0.01;58.34;99025.91;5070901;28;20044;-46
2024/01/20 09:50:35;;;;;;;29.50;14.17;;;-1.90;81.30;;;0.03;57.78;99016.22;5070586;28;20043;-48
2024/01/20 09:53:24;;;;;;;25.50;14.30;;;-1.90;82.30;;;0.06;58.02;99021.31;5071663;28;20496;-48
2024/01/20 09:55:52;;;;;;;34.37;15.93;;;-1.80;82.10;;;0.02;58.43;99012.75;5070530;28;20051;-47
2024/01/20 09:58:20;;;;;;;32.40;15.33;;;-1.90;81.70;;;0.03;58.49;99017.06;5071957;28;20428;-47
2024/01/20 10:00:50;;;;;;;35.27;17.13;;;-1.90;82.70;;;0.04;57.54;99010.91;5071871;28;20090;-47
2024/01/20 10:03:20;;;;;;;25.07;15.20;;;-1.90;82.90;;;0.07;57.73;99017.78;5070104;28;20048;-47
2024/01/20 10:05:48;;;;;;;30.63;16.77;;;-1.90;83.40;;;0.10;58.01;99025.53;5071431;28;20134;-47
2024/01/20 10:08:16;;;;;;;31.47;16.07;;;-1.80;83.00;;;0.10;58.28;99017.69;5069543;28;20040;-47
2024/01/20 10:10:43;;;;;;;25.70;13.37;;;-1.80;82.60;;;0.13;57.84;99025.38;5072071;28;20044;-48
2024/01/20 10:13:13;;;;;;;25.20;13.87;;;-1.80;82.50;;;0.15;58.43;99021.78;5070635;28;20514;-47